Decoded Metar for PACV (CORDOVA in AK, USA) (IATA:CDV) | Meteo·Mobile Aviation Weather
aviador You're here:

PACV Decoded Metar

CORDOVA in AK, USA
Report Time2018-10-17 04:53:00
UTC Time2018-10-17 05:12:26
Flight Rules mvfr MVFR
Wind130° at 05 kt
W.Decomp.*RWY 09: 4.7 kt HW 1.8 kt RCW
RWY 16: 3.3 kt HW 3.8 kt LCW
W.Rank130° ranks 9
Current wind is below 130° avg. (5.9)
Visibility9999 m
Phenomena:N/A
Clouds:Scattered 019 Hf
Broken 027 Hf
Broken 070 Hf
Ceiling2,700 ft
Temp10°C (ISA -5)
Dew Point10°C (100% RH)
AAT8.2°C
QNH1005 hPa
Density Alt-112 ft
Elevation39 ft
Report Wrong Elevation
Raw Report
METAR PACV 170453Z 13005KT 7SM SCT019 BKN027 BKN070 10/10 A2968
RMK SLP052 T01000100 VIA AUTODIAL=

Extra information for PACV:More info

Metar Taf Metar & Taf Last 4 Metars F.Rules Stats Wind Profile Meteogram Temp Stats Airport Information Weather charts Add Link Nearby VenuesMetar ALERT Operation Metar Decoded Social comments

AIRNAV info for PACV